createdAt,value
2023-05-04T00:01:38.165Z,100779.74
2023-05-04T00:04:05.961Z,100779.98
2023-05-04T00:06:33.698Z,100776.98
2023-05-04T00:09:01.371Z,100778.02
2023-05-04T00:11:29.217Z,100779.48
2023-05-04T00:13:56.708Z,100779.66
2023-05-04T00:16:24.362Z,100778.89
2023-05-04T00:18:52.057Z,100778.42
2023-05-04T00:21:19.541Z,100780.25
2023-05-04T00:23:47.216Z,100783.25
2023-05-04T00:26:15.249Z,100788.77
2023-05-04T00:28:43.539Z,100787.73
2023-05-04T00:31:11.695Z,100789.30
2023-05-04T00:33:39.286Z,100793.46
2023-05-04T00:36:06.942Z,100792.25
2023-05-04T00:38:47.198Z,100790.77
2023-05-04T00:41:14.821Z,100791.98
2023-05-04T00:43:42.375Z,100785.71
2023-05-04T00:46:13.005Z,100782.13
2023-05-04T00:48:41.351Z,100781.17
2023-05-04T00:51:09.040Z,100780.77
2023-05-04T00:53:36.830Z,100782.17
2023-05-04T00:56:04.559Z,100787.15
2023-05-04T00:58:32.460Z,100788.44
2023-05-04T01:01:00.333Z,100785.90
2023-05-04T01:03:28.177Z,100789.02
2023-05-04T01:05:55.917Z,100789.17
2023-05-04T01:08:25.270Z,100787.79
2023-05-04T01:10:54.881Z,100781.69
2023-05-04T01:13:22.547Z,100788.88
2023-05-04T01:15:50.084Z,100791.45
2023-05-04T01:18:18.019Z,100785.30
2023-05-04T01:20:45.692Z,100785.95
2023-05-04T01:23:13.204Z,100784.80
2023-05-04T01:26:01.201Z,100790.46
2023-05-04T01:28:39.438Z,100781.44
2023-05-04T01:31:07.729Z,100783.45
2023-05-04T01:33:37.098Z,100784.52
2023-05-04T01:36:06.026Z,100788.38
2023-05-04T01:38:33.784Z,100789.98
2023-05-04T01:41:01.198Z,100792.95
2023-05-04T01:43:28.823Z,100794.09
2023-05-04T01:45:56.614Z,100790.58
2023-05-04T01:48:24.286Z,100798.61
2023-05-04T01:50:51.845Z,100798.70
2023-05-04T01:53:19.541Z,100799.68
2023-05-04T01:55:47.571Z,100791.34
2023-05-04T01:58:15.138Z,100782.20
2023-05-04T02:00:42.747Z,100784.38
2023-05-04T02:03:10.517Z,100781.04
2023-05-04T02:05:38.559Z,100782.50
2023-05-04T02:08:06.521Z,100782.63
2023-05-04T02:10:33.948Z,100779.39
2023-05-04T02:13:01.565Z,100784.27
2023-05-04T02:15:29.150Z,100781.94
2023-05-04T02:17:56.799Z,100779.60
2023-05-04T02:20:24.275Z,100781.16
2023-05-04T02:22:51.762Z,100782.36
2023-05-04T02:25:19.239Z,100781.03
2023-05-04T02:27:47.233Z,100785.20
2023-05-04T02:30:14.850Z,100783.73
2023-05-04T02:32:42.351Z,100778.31
2023-05-04T02:35:10.462Z,100775.16
2023-05-04T02:37:38.595Z,100772.33
2023-05-04T02:40:06.926Z,100767.02
2023-05-04T02:42:35.617Z,100769.56
2023-05-04T02:45:03.117Z,100776.33
2023-05-04T02:47:30.528Z,100776.19
2023-05-04T02:50:00.325Z,100779.09
2023-05-04T02:52:27.807Z,100774.67
2023-05-04T02:54:55.304Z,100768.78
2023-05-04T02:57:22.830Z,100765.09
2023-05-04T02:59:51.221Z,100767.21
2023-05-04T03:02:18.648Z,100761.88
2023-05-04T03:04:46.347Z,100759.33
2023-05-04T03:07:13.948Z,100761.70
2023-05-04T03:09:41.521Z,100767.22
2023-05-04T03:12:09.220Z,100772.34
2023-05-04T03:14:36.818Z,100773.24
2023-05-04T03:17:04.246Z,100772.98
2023-05-04T03:19:32.267Z,100771.73
2023-05-04T03:21:59.792Z,100777.61
2023-05-04T03:24:27.293Z,100777.69
2023-05-04T03:26:55.271Z,100781.34
2023-05-04T03:29:23.720Z,100787.79
2023-05-04T03:31:51.546Z,100790.59
2023-05-04T03:34:21.989Z,100788.30
2023-05-04T03:36:52.998Z,100777.29
2023-05-04T03:39:20.544Z,100765.45
2023-05-04T03:41:48.429Z,100759.00
2023-05-04T03:44:15.900Z,100752.10
2023-05-04T03:46:43.510Z,100748.08
2023-05-04T03:49:11.604Z,100751.22
2023-05-04T03:51:39.415Z,100755.27
2023-05-04T03:54:08.441Z,100752.59
2023-05-04T03:56:36.064Z,100756.11
2023-05-04T03:59:03.482Z,100761.60
2023-05-04T04:01:31.693Z,100761.80
2023-05-04T04:03:59.162Z,100767.88
2023-05-04T04:06:26.582Z,100772.08
2023-05-04T04:08:54.116Z,100773.13
2023-05-04T04:11:21.421Z,100770.48
2023-05-04T04:13:48.683Z,100768.52
2023-05-04T04:16:16.604Z,100768.02
2023-05-04T04:18:43.945Z,100774.73
2023-05-04T04:21:11.280Z,100773.98
2023-05-04T04:23:38.634Z,100769.13
2023-05-04T04:26:08.812Z,100772.15
2023-05-04T04:28:36.231Z,100779.52
2023-05-04T04:31:04.230Z,100777.73
2023-05-04T04:33:31.870Z,100776.35
2023-05-04T04:35:59.332Z,100774.20
2023-05-04T04:38:26.652Z,100774.77
2023-05-04T04:40:53.936Z,100778.31
2023-05-04T04:43:21.240Z,100775.80
2023-05-04T04:45:48.622Z,100778.55
2023-05-04T04:48:16.106Z,100776.00
2023-05-04T04:50:43.415Z,100782.06
2023-05-04T04:53:11.338Z,100780.88
2023-05-04T04:55:38.805Z,100785.11
2023-05-04T04:58:06.259Z,100785.30
2023-05-04T05:00:33.632Z,100785.43
2023-05-04T05:03:01.546Z,100780.72
2023-05-04T05:05:31.029Z,100786.41
2023-05-04T05:07:59.435Z,100789.63
2023-05-04T05:10:27.264Z,100791.20
2023-05-04T05:12:54.609Z,100790.27
2023-05-04T05:15:21.915Z,100796.53
2023-05-04T05:17:49.312Z,100802.98
2023-05-04T05:20:16.594Z,100799.46
2023-05-04T05:22:43.979Z,100800.34
2023-05-04T05:25:11.334Z,100800.83
2023-05-04T05:27:38.612Z,100805.62
2023-05-04T05:30:06.807Z,100803.81
2023-05-04T05:32:34.454Z,100803.52
2023-05-04T05:35:02.108Z,100800.20
2023-05-04T05:37:29.437Z,100800.84
2023-05-04T05:39:57.254Z,100798.07
2023-05-04T05:42:24.669Z,100795.83
2023-05-04T05:44:52.122Z,100797.20
2023-05-04T05:47:19.824Z,100801.48
2023-05-04T05:49:47.132Z,100803.38
2023-05-04T05:52:14.488Z,100799.83
2023-05-04T05:54:41.872Z,100789.39
2023-05-04T05:57:09.167Z,100784.55
2023-05-04T05:59:36.468Z,100780.76
2023-05-04T06:02:03.895Z,100781.32
2023-05-04T06:04:31.275Z,100784.33
2023-05-04T06:06:58.604Z,100790.98
2023-05-04T06:09:26.020Z,100785.48
2023-05-04T06:11:55.503Z,100781.06
2023-05-04T06:14:23.000Z,100768.23
2023-05-04T06:16:50.346Z,100764.50
2023-05-04T06:19:17.819Z,100760.28
2023-05-04T06:21:45.136Z,100761.45
2023-05-04T06:24:12.510Z,100760.60
2023-05-04T06:26:39.784Z,100763.11
2023-05-04T06:29:07.059Z,100758.57
2023-05-04T06:31:34.489Z,100759.98
2023-05-04T06:34:01.823Z,100764.65
2023-05-04T06:36:29.094Z,100766.23
2023-05-04T06:38:58.600Z,100765.73
2023-05-04T06:41:25.894Z,100760.39
2023-05-04T06:43:53.554Z,100763.09
2023-05-04T06:46:21.122Z,100763.16
2023-05-04T06:48:48.779Z,100765.58
2023-05-04T06:51:16.614Z,100768.32
2023-05-04T06:53:44.038Z,100767.39
2023-05-04T06:56:11.449Z,100770.41
2023-05-04T06:58:38.782Z,100762.36
2023-05-04T07:01:09.467Z,100757.02
2023-05-04T07:03:37.429Z,100756.40
2023-05-04T07:06:04.979Z,100761.23
2023-05-04T07:08:33.454Z,100756.73
2023-05-04T07:11:00.828Z,100751.61
2023-05-04T07:13:28.758Z,100754.33
2023-05-04T07:15:56.666Z,100758.55
2023-05-04T07:18:24.001Z,100757.30
2023-05-04T07:20:52.919Z,100757.70
2023-05-04T07:23:20.400Z,100749.73
2023-05-04T07:25:47.660Z,100752.60
2023-05-04T07:28:16.943Z,100753.35
2023-05-04T07:30:44.280Z,100748.35
2023-05-04T07:33:11.581Z,100755.66
2023-05-04T07:35:38.914Z,100756.11
2023-05-04T07:38:06.238Z,100749.23
2023-05-04T07:40:33.516Z,100754.99
2023-05-04T07:43:00.912Z,100757.41
2023-05-04T07:45:28.263Z,100757.23
2023-05-04T07:47:55.715Z,100758.10
2023-05-04T07:50:23.054Z,100760.59
2023-05-04T07:52:50.411Z,100755.56
2023-05-04T07:55:19.662Z,100756.30
2023-05-04T07:57:47.128Z,100763.02
2023-05-04T08:00:15.285Z,100763.20
2023-05-04T08:02:42.572Z,100761.46
2023-05-04T08:05:10.134Z,100765.57
2023-05-04T08:07:37.549Z,100764.69
2023-05-04T08:10:05.296Z,100755.73
2023-05-04T08:12:32.767Z,100756.32
2023-05-04T08:15:00.205Z,100759.35
2023-05-04T08:17:30.473Z,100759.63
2023-05-04T08:19:58.179Z,100756.95
2023-05-04T08:22:25.624Z,100761.20
2023-05-04T08:24:52.988Z,100757.64
2023-05-04T08:27:20.375Z,100758.20
2023-05-04T08:29:47.918Z,100756.93
2023-05-04T08:32:15.291Z,100758.33
2023-05-04T08:34:42.597Z,100761.35
2023-05-04T08:37:10.232Z,100762.45
2023-05-04T08:39:39.439Z,100757.23
2023-05-04T08:42:08.632Z,100753.58
2023-05-04T08:44:36.509Z,100743.84
2023-05-04T08:47:05.015Z,100747.81
2023-05-04T08:49:32.494Z,100750.95
2023-05-04T08:51:59.972Z,100744.77
2023-05-04T08:54:27.255Z,100738.99
2023-05-04T08:56:55.549Z,100738.90
2023-05-04T08:59:23.399Z,100732.75
2023-05-04T09:01:52.503Z,100733.20
2023-05-04T09:04:19.870Z,100731.67
2023-05-04T09:06:50.046Z,100729.38
2023-05-04T09:09:17.342Z,100730.71
2023-05-04T09:11:48.284Z,100735.10
2023-05-04T09:14:15.748Z,100735.43
2023-05-04T09:16:43.146Z,100739.17
2023-05-04T09:19:17.799Z,100737.06
2023-05-04T09:21:45.157Z,100735.08
2023-05-04T09:24:13.035Z,100732.88
2023-05-04T09:26:40.271Z,100731.92
2023-05-04T09:29:11.105Z,100738.52
2023-05-04T09:31:48.505Z,100739.42
2023-05-04T09:34:15.970Z,100739.13
2023-05-04T09:36:43.335Z,100740.30
2023-05-04T09:39:11.627Z,100733.99
2023-05-04T09:41:39.066Z,100735.02
2023-05-04T09:44:06.773Z,100730.77
2023-05-04T09:46:35.690Z,100727.60
2023-05-04T09:49:04.164Z,100722.89
2023-05-04T09:51:31.516Z,100721.92
2023-05-04T09:53:58.797Z,100721.75
2023-05-04T09:56:32.375Z,100722.11
2023-05-04T09:58:59.895Z,100723.83
2023-05-04T10:01:30.294Z,100719.05
2023-05-04T10:03:57.915Z,100719.06
2023-05-04T10:06:25.237Z,100720.66
2023-05-04T10:08:52.508Z,100718.60
2023-05-04T10:11:21.204Z,100715.81
2023-05-04T10:13:48.588Z,100716.84
2023-05-04T10:16:28.523Z,100710.42
2023-05-04T10:19:04.747Z,100703.87
2023-05-04T10:21:56.164Z,100701.30
2023-05-04T10:24:29.756Z,100696.66
2023-05-04T10:27:11.174Z,100696.23
2023-05-04T10:29:38.460Z,100691.11
2023-05-04T10:32:08.269Z,100682.98
2023-05-04T10:34:35.722Z,100684.45
2023-05-04T10:37:03.933Z,100679.76
2023-05-04T10:39:32.123Z,100678.73
2023-05-04T10:42:00.163Z,100674.45
2023-05-04T10:44:28.130Z,100676.77
2023-05-04T10:46:59.814Z,100678.07
2023-05-04T10:49:27.336Z,100672.89
2023-05-04T10:52:16.257Z,100671.73
2023-05-04T10:54:44.471Z,100671.63
2023-05-04T10:57:15.377Z,100669.48
2023-05-04T10:59:42.741Z,100667.98
2023-05-04T11:02:10.392Z,100667.05
2023-05-04T11:04:38.340Z,100666.00
2023-05-04T11:07:06.627Z,100664.03
2023-05-04T11:09:42.475Z,100664.52
2023-05-04T11:12:13.214Z,100660.12
2023-05-04T11:14:43.102Z,100658.75
2023-05-04T11:17:27.548Z,100658.41
2023-05-04T11:19:56.504Z,100658.30
2023-05-04T11:22:23.884Z,100653.17
2023-05-04T11:24:52.000Z,100654.05
2023-05-04T11:27:28.030Z,100652.45
2023-05-04T11:30:02.450Z,100652.07
2023-05-04T11:32:47.069Z,100653.06
2023-05-04T11:35:19.013Z,100648.65
2023-05-04T11:37:47.063Z,100647.38
2023-05-04T11:40:22.384Z,100642.68
2023-05-04T11:42:54.735Z,100637.38
2023-05-04T11:45:24.116Z,100633.29
2023-05-04T11:47:52.041Z,100627.39
2023-05-04T11:50:20.826Z,100624.02
2023-05-04T11:52:48.404Z,100620.44
2023-05-04T11:55:29.097Z,100611.73
2023-05-04T11:58:04.779Z,100614.59
2023-05-04T12:00:44.078Z,100606.85
2023-05-04T12:03:15.480Z,100607.58
2023-05-04T12:05:50.305Z,100608.91
2023-05-04T12:08:26.504Z,100606.59
2023-05-04T12:11:09.762Z,100603.61
2023-05-04T12:13:37.118Z,100603.81
2023-05-04T12:16:10.597Z,100600.44
2023-05-04T12:18:38.022Z,100598.47
2023-05-04T12:21:10.422Z,100597.58
2023-05-04T12:23:38.164Z,100592.59
2023-05-04T12:26:05.418Z,100591.11
2023-05-04T12:28:32.837Z,100588.84
2023-05-04T12:31:00.315Z,100590.05
2023-05-04T12:33:27.559Z,100589.21
2023-05-04T12:35:54.912Z,100587.07
2023-05-04T12:38:22.597Z,100586.80
2023-05-04T12:40:49.902Z,100589.95
2023-05-04T12:43:20.837Z,100589.35
2023-05-04T12:45:48.826Z,100585.77
2023-05-04T12:48:16.538Z,100582.33
2023-05-04T12:50:47.550Z,100576.05
2023-05-04T12:53:15.094Z,100574.21
2023-05-04T12:55:43.210Z,100572.23
2023-05-04T12:58:10.576Z,100572.23
2023-05-04T13:00:38.186Z,100567.17
2023-05-04T13:03:05.844Z,100570.71
2023-05-04T13:05:33.567Z,100568.40
2023-05-04T13:08:01.316Z,100563.98
2023-05-04T13:10:28.860Z,100562.72
2023-05-04T13:12:56.291Z,100558.09
2023-05-04T13:15:23.968Z,100552.63
2023-05-04T13:17:51.231Z,100551.59
2023-05-04T13:20:18.664Z,100553.78
2023-05-04T13:22:49.031Z,100556.27
2023-05-04T13:25:16.351Z,100554.23
2023-05-04T13:27:43.690Z,100548.33
2023-05-04T13:30:11.374Z,100544.13
2023-05-04T13:32:38.869Z,100538.77
2023-05-04T13:35:06.936Z,100540.26
2023-05-04T13:37:34.355Z,100536.77
2023-05-04T13:40:02.098Z,100531.33
2023-05-04T13:42:29.648Z,100530.66
2023-05-04T13:44:57.654Z,100528.17
2023-05-04T13:47:24.907Z,100528.17
2023-05-04T13:49:52.383Z,100521.68
2023-05-04T13:52:19.699Z,100525.69
2023-05-04T13:54:46.902Z,100523.58
2023-05-04T13:57:14.359Z,100521.40
2023-05-04T13:59:46.511Z,100518.05
2023-05-04T14:02:22.487Z,100516.59
2023-05-04T14:04:50.963Z,100522.73
2023-05-04T14:07:18.455Z,100522.00
2023-05-04T14:09:45.844Z,100526.21
2023-05-04T14:12:13.392Z,100521.84
2023-05-04T14:14:40.807Z,100526.99
2023-05-04T14:17:08.435Z,100523.05
2023-05-04T14:19:35.752Z,100522.89
2023-05-04T14:22:03.379Z,100523.71
2023-05-04T14:24:30.993Z,100518.36
2023-05-04T14:26:58.427Z,100526.06
2023-05-04T14:29:25.829Z,100520.02
2023-05-04T14:31:53.589Z,100524.35
2023-05-04T14:34:21.247Z,100524.36
2023-05-04T14:36:48.613Z,100523.06
2023-05-04T14:39:16.250Z,100527.36
2023-05-04T14:41:43.608Z,100522.30
2023-05-04T14:44:10.983Z,100526.20
2023-05-04T14:46:38.338Z,100523.92
2023-05-04T14:49:07.768Z,100526.02
2023-05-04T14:51:35.985Z,100531.09
2023-05-04T14:54:03.573Z,100530.58
2023-05-04T14:56:31.060Z,100530.75
2023-05-04T14:59:01.573Z,100534.05
2023-05-04T15:01:28.998Z,100536.29
2023-05-04T15:03:56.857Z,100540.19
2023-05-04T15:06:24.376Z,100535.16
2023-05-04T15:08:51.853Z,100540.04
2023-05-04T15:11:19.530Z,100540.65
2023-05-04T15:13:47.095Z,100538.49
2023-05-04T15:16:20.573Z,100543.45
2023-05-04T15:18:48.174Z,100548.48
2023-05-04T15:21:15.618Z,100545.34
2023-05-04T15:23:43.025Z,100549.23
2023-05-04T15:26:10.544Z,100550.10
2023-05-04T15:28:38.092Z,100557.99
2023-05-04T15:31:07.717Z,100559.39
2023-05-04T15:33:35.171Z,100555.91
2023-05-04T15:36:06.335Z,100557.75
2023-05-04T15:38:33.619Z,100556.03
2023-05-04T15:41:00.972Z,100560.63
2023-05-04T15:43:28.576Z,100564.70
2023-05-04T15:45:55.967Z,100566.52
2023-05-04T15:48:23.450Z,100565.71
2023-05-04T15:50:50.935Z,100570.90
2023-05-04T15:53:18.329Z,100571.50
2023-05-04T15:55:45.851Z,100573.27
2023-05-04T15:58:13.162Z,100579.73
2023-05-04T16:00:40.489Z,100575.92
2023-05-04T16:03:08.637Z,100579.39
2023-05-04T16:05:36.522Z,100581.36
2023-05-04T16:08:03.970Z,100583.43
2023-05-04T16:10:31.314Z,100586.13
2023-05-04T16:13:04.458Z,100591.15
2023-05-04T16:15:32.287Z,100595.71
2023-05-04T16:18:00.237Z,100587.01
2023-05-04T16:20:28.504Z,100587.14
2023-05-04T16:22:56.176Z,100587.21
2023-05-04T16:25:23.649Z,100589.07
2023-05-04T16:27:51.310Z,100597.73
2023-05-04T16:30:18.816Z,100606.56
2023-05-04T16:32:46.296Z,100609.98
2023-05-04T16:35:13.731Z,100614.01
2023-05-04T16:37:41.141Z,100616.01
2023-05-04T16:40:09.372Z,100620.77
2023-05-04T16:42:37.054Z,100621.38
2023-05-04T16:45:06.537Z,100627.77
2023-05-04T16:47:34.261Z,100631.64
2023-05-04T16:50:01.813Z,100635.84
2023-05-04T16:52:29.354Z,100637.17
2023-05-04T16:54:57.495Z,100639.40
2023-05-04T16:57:24.894Z,100640.75
2023-05-04T16:59:52.418Z,100639.14
2023-05-04T17:02:19.896Z,100645.58
2023-05-04T17:04:47.339Z,100652.40
2023-05-04T17:07:14.709Z,100650.95
2023-05-04T17:09:41.998Z,100651.86
2023-05-04T17:12:09.375Z,100647.23
2023-05-04T17:14:36.848Z,100648.09
2023-05-04T17:17:04.081Z,100653.27
2023-05-04T17:19:31.532Z,100658.26
2023-05-04T17:21:58.975Z,100663.40
2023-05-04T17:24:26.414Z,100664.31
2023-05-04T17:26:53.823Z,100663.80
2023-05-04T17:29:21.261Z,100667.41
2023-05-04T17:31:48.702Z,100677.12
2023-05-04T17:34:16.100Z,100683.52
2023-05-04T17:36:43.582Z,100692.35
2023-05-04T17:39:11.677Z,100697.59
2023-05-04T17:41:39.043Z,100700.99
2023-05-04T17:44:06.629Z,100700.34
2023-05-04T17:46:34.982Z,100700.50
2023-05-04T17:49:02.389Z,100699.42
2023-05-04T17:51:29.974Z,100695.50
2023-05-04T17:53:57.369Z,100697.34
2023-05-04T17:56:24.780Z,100703.50
2023-05-04T17:58:52.086Z,100701.52
2023-05-04T18:01:19.455Z,100700.42
2023-05-04T18:03:47.006Z,100700.61
2023-05-04T18:06:14.626Z,100700.92
2023-05-04T18:08:42.094Z,100706.04
2023-05-04T18:11:09.618Z,100705.85
2023-05-04T18:13:37.131Z,100705.17
2023-05-04T18:16:04.711Z,100691.47
2023-05-04T18:18:32.453Z,100685.79
2023-05-04T18:21:01.270Z,100694.26
2023-05-04T18:23:29.573Z,100702.22
2023-05-04T18:25:56.976Z,100708.27
2023-05-04T18:28:24.697Z,100710.42
2023-05-04T18:30:52.117Z,100711.17
2023-05-04T18:33:19.534Z,100713.02
2023-05-04T18:35:47.093Z,100711.77
2023-05-04T18:38:14.742Z,100713.95
2023-05-04T18:40:42.376Z,100710.61
2023-05-04T18:43:09.902Z,100707.60
2023-05-04T18:45:37.405Z,100701.88
2023-05-04T18:48:04.925Z,100697.30
2023-05-04T18:50:32.374Z,100684.05
2023-05-04T18:53:00.775Z,100681.63
2023-05-04T18:55:28.345Z,100680.74
2023-05-04T18:57:55.834Z,100678.36
2023-05-04T19:00:23.817Z,100680.50
2023-05-04T19:02:52.163Z,100683.96
2023-05-04T19:05:19.615Z,100688.02
2023-05-04T19:07:47.135Z,100692.12
2023-05-04T19:10:14.820Z,100692.90
2023-05-04T19:12:42.310Z,100702.80
2023-05-04T19:15:10.095Z,100719.63
2023-05-04T19:17:37.735Z,100722.76
2023-05-04T19:20:05.488Z,100728.84
2023-05-04T19:22:33.039Z,100740.13
2023-05-04T19:25:00.385Z,100745.59
2023-05-04T19:27:28.222Z,100743.58
2023-05-04T19:29:56.509Z,100745.20
2023-05-04T19:32:25.053Z,100762.48
2023-05-04T19:34:53.041Z,100767.31
2023-05-04T19:37:21.172Z,100761.45
2023-05-04T19:39:49.014Z,100751.62
2023-05-04T19:42:16.575Z,100749.35
2023-05-04T19:44:43.995Z,100749.73
2023-05-04T19:47:11.495Z,100752.71
2023-05-04T19:49:39.252Z,100747.23
2023-05-04T19:52:07.572Z,100735.36
2023-05-04T19:54:35.115Z,100723.76
2023-05-04T19:57:02.487Z,100718.86
2023-05-04T19:59:30.131Z,100719.55
2023-05-04T20:01:59.360Z,100718.63
2023-05-04T20:04:26.939Z,100718.16
2023-05-04T20:06:54.479Z,100716.89
2023-05-04T20:09:21.839Z,100712.42
2023-05-04T20:11:49.183Z,100707.05
2023-05-04T20:14:16.734Z,100698.23
2023-05-04T20:16:44.244Z,100698.72
2023-05-04T20:19:11.685Z,100692.95
2023-05-04T20:21:39.222Z,100687.42
2023-05-04T20:24:06.626Z,100667.60
2023-05-04T20:26:33.918Z,100654.48
2023-05-04T20:29:01.818Z,100649.55
2023-05-04T20:31:29.288Z,100655.54
2023-05-04T20:33:56.708Z,100669.34
2023-05-04T20:36:24.211Z,100675.38
2023-05-04T20:38:51.502Z,100673.35
2023-05-04T20:41:19.163Z,100675.34
2023-05-04T20:43:46.790Z,100670.42
2023-05-04T20:46:14.180Z,100666.14
2023-05-04T20:48:41.503Z,100668.20
2023-05-04T20:51:14.513Z,100675.69
2023-05-04T20:53:42.951Z,100681.88
2023-05-04T20:56:10.242Z,100680.79
2023-05-04T20:58:37.566Z,100678.15
2023-05-04T21:01:05.224Z,100666.39
2023-05-04T21:03:33.078Z,100648.02
2023-05-04T21:06:01.506Z,100648.82
2023-05-04T21:08:29.025Z,100647.06
2023-05-04T21:10:56.309Z,100653.55
2023-05-04T21:13:23.817Z,100662.98
2023-05-04T21:15:51.816Z,100657.98
2023-05-04T21:18:20.004Z,100657.52
2023-05-04T21:20:47.495Z,100670.92
2023-05-04T21:23:14.898Z,100683.67
2023-05-04T21:25:42.276Z,100689.23
2023-05-04T21:28:09.796Z,100687.08
2023-05-04T21:30:40.689Z,100686.61
2023-05-04T21:33:08.025Z,100686.20
2023-05-04T21:35:35.530Z,100684.17
2023-05-04T21:38:02.880Z,100686.20
2023-05-04T21:40:30.220Z,100698.86
2023-05-04T21:42:57.582Z,100710.78
2023-05-04T21:45:24.982Z,100715.28
2023-05-04T21:47:52.347Z,100708.67
2023-05-04T21:50:19.762Z,100695.31
2023-05-04T21:52:47.103Z,100693.35
2023-05-04T21:55:17.803Z,100692.38
2023-05-04T21:57:45.212Z,100693.24
2023-05-04T22:00:17.715Z,100674.41
2023-05-04T22:02:45.425Z,100652.35
2023-05-04T22:05:12.988Z,100658.02
2023-05-04T22:07:40.472Z,100655.16
2023-05-04T22:10:08.486Z,100644.84
2023-05-04T22:12:36.159Z,100636.28
2023-05-04T22:15:03.454Z,100636.59
2023-05-04T22:17:30.822Z,100643.35
2023-05-04T22:19:58.255Z,100656.39
2023-05-04T22:22:25.673Z,100661.59
2023-05-04T22:24:53.065Z,100667.50
2023-05-04T22:27:20.643Z,100669.09
2023-05-04T22:29:48.039Z,100670.49
2023-05-04T22:32:15.436Z,100675.29
2023-05-04T22:34:42.724Z,100681.16
2023-05-04T22:37:10.058Z,100684.92
2023-05-04T22:39:37.565Z,100689.63
2023-05-04T22:42:04.894Z,100692.86
2023-05-04T22:44:33.672Z,100693.78
2023-05-04T22:47:01.318Z,100687.71
2023-05-04T22:49:28.620Z,100691.29
2023-05-04T22:51:56.006Z,100691.09
2023-05-04T22:54:23.493Z,100682.48
2023-05-04T22:56:51.395Z,100678.23
2023-05-04T22:59:18.724Z,100676.82
2023-05-04T23:01:46.978Z,100675.25
2023-05-04T23:04:14.695Z,100671.80
2023-05-04T23:06:42.256Z,100674.69
2023-05-04T23:09:09.778Z,100678.33
2023-05-04T23:11:38.169Z,100678.77
2023-05-04T23:14:05.528Z,100673.98
2023-05-04T23:16:33.053Z,100665.28
2023-05-04T23:19:00.607Z,100664.27
2023-05-04T23:21:27.917Z,100658.41
2023-05-04T23:23:55.310Z,100658.37
2023-05-04T23:26:22.771Z,100658.29
2023-05-04T23:28:50.206Z,100659.91
2023-05-04T23:31:17.586Z,100660.43
2023-05-04T23:33:44.951Z,100662.85
2023-05-04T23:36:12.432Z,100657.52
2023-05-04T23:38:39.797Z,100659.58
2023-05-04T23:41:07.298Z,100663.69
2023-05-04T23:43:34.932Z,100663.56
2023-05-04T23:46:02.793Z,100662.77
2023-05-04T23:48:30.648Z,100654.50
2023-05-04T23:50:58.987Z,100651.07
2023-05-04T23:53:26.710Z,100644.08
2023-05-04T23:55:58.569Z,100637.98
2023-05-04T23:58:27.522Z,100633.67
